createdAt,value
2018-01-25T00:00:05.113Z,12.06
2018-01-25T00:01:04.841Z,11.95
2018-01-25T00:02:04.575Z,11.97
2018-01-25T00:03:05.103Z,11.97
2018-01-25T00:04:05.023Z,11.97
2018-01-25T00:05:05.004Z,11.97
2018-01-25T00:06:04.982Z,11.88
2018-01-25T00:07:04.715Z,12.03
2018-01-25T00:08:04.950Z,11.99
2018-01-25T00:09:04.910Z,11.86
2018-01-25T00:10:04.890Z,11.9
2018-01-25T00:11:04.622Z,11.9
2018-01-25T00:12:04.849Z,11.99
2018-01-25T00:13:04.824Z,11.95
2018-01-25T00:14:04.800Z,11.9
2018-01-25T00:15:04.569Z,11.86
2018-01-25T00:16:04.753Z,11.8
2018-01-25T00:17:04.490Z,11.87
2018-01-25T00:18:04.468Z,11.88
2018-01-25T00:19:04.694Z,11.86
2018-01-25T00:20:04.176Z,11.78
2018-01-25T00:21:04.400Z,11.8
2018-01-25T00:22:04.376Z,11.77
2018-01-25T00:23:04.597Z,11.8
2018-01-25T00:24:04.581Z,11.7
2018-01-25T00:25:04.311Z,11.8
2018-01-25T00:26:04.286Z,11.75
2018-01-25T00:27:04.265Z,11.77
2018-01-25T00:28:04.242Z,11.8
2018-01-25T00:29:04.465Z,11.77
2018-01-25T00:30:04.447Z,11.75
2018-01-25T00:31:04.174Z,11.72
2018-01-25T00:32:04.394Z,11.81
2018-01-25T00:33:04.131Z,11.68
2018-01-25T00:34:04.405Z,11.73
2018-01-25T00:35:04.134Z,11.66
2018-01-25T00:36:04.063Z,11.73
2018-01-25T00:37:04.043Z,11.7
2018-01-25T00:38:04.020Z,11.62
2018-01-25T00:39:04.238Z,11.68
2018-01-25T00:40:04.221Z,11.63
2018-01-25T00:41:04.200Z,11.59
2018-01-25T00:42:04.177Z,11.59
2018-01-25T00:43:04.150Z,11.54
2018-01-25T00:44:03.884Z,11.59
2018-01-25T00:45:04.114Z,11.57
2018-01-25T00:46:04.083Z,11.59
2018-01-25T00:47:04.102Z,11.52
2018-01-25T00:48:03.793Z,11.51
2018-01-25T00:49:04.014Z,11.51
2018-01-25T00:50:04.004Z,11.45
2018-01-25T00:51:03.974Z,11.47
2018-01-25T00:52:03.468Z,11.43
2018-01-25T00:53:03.940Z,11.48
2018-01-25T00:54:03.660Z,11.45
2018-01-25T00:55:03.388Z,11.48
2018-01-25T00:56:03.618Z,11.44
2018-01-25T00:57:03.855Z,11.44
2018-01-25T00:58:03.571Z,11.41
2018-01-25T00:59:03.544Z,11.45
2018-01-25T01:00:03.776Z,11.33
2018-01-25T01:01:03.747Z,11.36
2018-01-25T01:02:03.235Z,11.33
2018-01-25T01:03:03.698Z,11.36
2018-01-25T01:04:03.431Z,11.32
2018-01-25T01:05:03.661Z,11.19
2018-01-25T01:06:03.635Z,11.3
2018-01-25T01:07:03.609Z,11.26
2018-01-25T01:08:03.593Z,11.23
2018-01-25T01:09:03.565Z,11.12
2018-01-25T01:10:03.662Z,11.17
2018-01-25T01:11:03.274Z,11.14
2018-01-25T01:12:03.493Z,11.08
2018-01-25T01:13:03.474Z,10.96
2018-01-25T01:14:03.449Z,10.69
2018-01-25T01:15:03.179Z,10.4
2018-01-25T01:16:03.401Z,10.22
2018-01-25T01:17:03.382Z,9.91
2018-01-25T01:18:03.356Z,9.84
2018-01-25T01:19:02.837Z,9.56
2018-01-25T01:20:03.309Z,9.58
2018-01-25T01:21:03.281Z,9.44
2018-01-25T01:22:03.256Z,9.36
2018-01-25T01:23:03.230Z,9.39
2018-01-25T01:24:02.960Z,9.25
2018-01-25T01:25:03.178Z,9.22
2018-01-25T01:26:02.664Z,9.18
2018-01-25T01:27:02.934Z,9.21
2018-01-25T01:28:03.113Z,9.16
2018-01-25T01:29:02.592Z,9.16
2018-01-25T01:30:03.064Z,9.06
2018-01-25T01:31:03.038Z,9.1
2018-01-25T01:32:02.761Z,9.02
2018-01-25T01:33:02.985Z,8.99
2018-01-25T01:34:02.964Z,9
2018-01-25T01:35:02.690Z,8.99
2018-01-25T01:36:02.664Z,8.94
2018-01-25T01:37:02.882Z,9.04
2018-01-25T01:38:02.863Z,8.95
2018-01-25T01:39:02.588Z,8.99
2018-01-25T01:40:02.566Z,8.92
2018-01-25T01:41:02.782Z,8.94
2018-01-25T01:42:02.756Z,8.94
2018-01-25T01:43:02.730Z,8.88
2018-01-25T01:44:02.710Z,8.92
2018-01-25T01:45:02.679Z,8.92
2018-01-25T01:46:02.751Z,8.85
2018-01-25T01:47:02.626Z,8.91
2018-01-25T01:48:02.601Z,8.88
2018-01-25T01:49:02.337Z,8.95
2018-01-25T01:50:02.553Z,8.88
2018-01-25T01:51:02.529Z,8.92
2018-01-25T01:52:02.507Z,8.81
2018-01-25T01:53:02.237Z,8.91
2018-01-25T01:54:02.206Z,8.87
2018-01-25T01:55:02.437Z,8.84
2018-01-25T01:56:02.406Z,8.74
2018-01-25T01:57:02.375Z,8.82
2018-01-25T01:58:02.368Z,8.89
2018-01-25T01:59:01.834Z,8.84
2018-01-25T02:00:02.063Z,8.74
2018-01-25T02:01:02.276Z,8.84
2018-01-25T02:02:02.252Z,8.81
2018-01-25T02:03:01.977Z,8.85
2018-01-25T02:04:02.199Z,8.79
2018-01-25T02:05:02.176Z,8.78
2018-01-25T02:06:02.154Z,8.81
2018-01-25T02:07:02.129Z,8.78
2018-01-25T02:08:02.104Z,8.76
2018-01-25T02:09:02.069Z,8.74
2018-01-25T02:10:02.044Z,8.71
2018-01-25T02:11:02.021Z,8.58
2018-01-25T02:12:01.748Z,8.63
2018-01-25T02:13:01.972Z,8.66
2018-01-25T02:14:01.943Z,8.66
2018-01-25T02:15:01.919Z,8.58
2018-01-25T02:16:01.899Z,8.58
2018-01-25T02:17:01.872Z,8.61
2018-01-25T02:18:01.841Z,8.6
2018-01-25T02:19:01.857Z,8.55
2018-01-25T02:20:01.297Z,8.53
2018-01-25T02:21:01.765Z,8.46
2018-01-25T02:22:01.739Z,8.48
2018-01-25T02:23:01.712Z,8.38
2018-01-25T02:24:01.444Z,8.42
2018-01-25T02:25:01.659Z,8.46
2018-01-25T02:26:01.633Z,8.38
2018-01-25T02:27:01.613Z,8.36
2018-01-25T02:28:01.592Z,8.38
2018-01-25T02:29:01.311Z,8.41
2018-01-25T02:30:01.283Z,8.38
2018-01-25T02:31:01.518Z,8.44
2018-01-25T02:32:01.479Z,8.36
2018-01-25T02:33:01.459Z,8.41
2018-01-25T02:34:01.430Z,8.36
2018-01-25T02:35:01.405Z,8.33
2018-01-25T02:36:01.130Z,8.31
2018-01-25T02:37:01.358Z,8.36
2018-01-25T02:38:00.834Z,8.37
2018-01-25T02:39:01.304Z,8.31
2018-01-25T02:40:01.279Z,8.36
2018-01-25T02:41:01.243Z,8.38
2018-01-25T02:42:00.977Z,8.41
2018-01-25T02:43:01.203Z,8.45
2018-01-25T02:44:01.176Z,8.33
2018-01-25T02:45:01.149Z,8.42
2018-01-25T02:46:01.121Z,8.33
2018-01-25T02:47:01.100Z,8.36
2018-01-25T02:48:01.067Z,8.33
2018-01-25T02:49:01.039Z,8.31
2018-01-25T02:50:01.019Z,8.28
2018-01-25T02:51:00.988Z,8.31
2018-01-25T02:52:00.965Z,8.33
2018-01-25T02:53:00.939Z,8.31
2018-01-25T02:54:00.919Z,8.28
2018-01-25T02:55:00.885Z,8.31
2018-01-25T02:56:00.864Z,8.26
2018-01-25T02:57:00.839Z,8.19
2018-01-25T02:58:00.806Z,8.2
2018-01-25T02:59:00.785Z,8.18
2018-01-25T03:00:00.759Z,8.06
2018-01-25T03:01:00.486Z,8.19
2018-01-25T03:02:00.705Z,8.09
2018-01-25T03:03:00.678Z,8.08
2018-01-25T03:04:00.650Z,8.15
2018-01-25T03:05:00.377Z,8.05
2018-01-25T03:06:00.600Z,8.03
2018-01-25T03:07:00.627Z,8.01
2018-01-25T03:08:00.553Z,8.01
2018-01-25T03:09:00.522Z,8.05
2018-01-25T03:10:00.498Z,8.05
2018-01-25T03:11:00.474Z,8
2018-01-25T03:12:00.443Z,7.98
2018-01-25T03:13:00.171Z,7.98
2018-01-25T03:14:00.390Z,7.98
2018-01-25T03:15:00.367Z,8.05
2018-01-25T03:16:00.098Z,8.01
2018-01-25T03:17:00.317Z,7.98
2018-01-25T03:18:00.041Z,8
2018-01-25T03:19:00.013Z,8.01
2018-01-25T03:19:59.744Z,8.05
2018-01-25T03:20:59.964Z,8.03
2018-01-25T03:22:00.182Z,8.03
2018-01-25T03:23:00.160Z,8.01
2018-01-25T03:24:00.186Z,8.06
2018-01-25T03:24:59.860Z,8.08
2018-01-25T03:26:00.078Z,8.09
2018-01-25T03:26:59.808Z,8.05
2018-01-25T03:27:59.784Z,8.06
2018-01-25T03:29:00.012Z,8.06
2018-01-25T03:29:59.973Z,8.13
2018-01-25T03:30:59.959Z,8.06
2018-01-25T03:31:59.919Z,8.08
2018-01-25T03:32:59.653Z,8.03
2018-01-25T03:33:59.868Z,8.06
2018-01-25T03:34:59.596Z,8.05
2018-01-25T03:35:59.817Z,7.98
2018-01-25T03:36:59.793Z,8.08
2018-01-25T03:37:59.762Z,8.03
2018-01-25T03:38:59.738Z,8.03
2018-01-25T03:39:59.711Z,8.01
2018-01-25T03:40:59.682Z,8.01
2018-01-25T03:41:59.661Z,7.98
2018-01-25T03:42:59.680Z,7.91
2018-01-25T03:43:59.611Z,7.93
2018-01-25T03:44:59.580Z,7.95
2018-01-25T03:45:59.558Z,7.95
2018-01-25T03:46:59.278Z,7.91
2018-01-25T03:47:59.501Z,7.97
2018-01-25T03:48:59.480Z,7.97
2018-01-25T03:49:59.447Z,7.93
2018-01-25T03:50:59.423Z,7.97
2018-01-25T03:51:59.396Z,7.97
2018-01-25T03:52:59.379Z,7.95
2018-01-25T03:53:59.350Z,8
2018-01-25T03:54:59.070Z,7.9
2018-01-25T03:55:59.047Z,7.97
2018-01-25T03:56:58.774Z,7.94
2018-01-25T03:57:59.242Z,7.93
2018-01-25T03:58:58.968Z,7.97
2018-01-25T03:59:59.182Z,7.95
2018-01-25T04:00:59.159Z,8
2018-01-25T04:01:59.136Z,7.97
2018-01-25T04:02:59.109Z,7.95
2018-01-25T04:03:59.085Z,8
2018-01-25T04:04:59.054Z,7.88
2018-01-25T04:05:59.031Z,7.93
2018-01-25T04:06:58.756Z,7.87
2018-01-25T04:07:58.977Z,7.9
2018-01-25T04:08:58.707Z,7.87
2018-01-25T04:09:58.920Z,7.85
2018-01-25T04:10:58.893Z,7.85
2018-01-25T04:11:58.870Z,7.77
2018-01-25T04:12:58.842Z,7.83
2018-01-25T04:13:58.576Z,7.8
2018-01-25T04:14:58.791Z,7.79
2018-01-25T04:15:58.523Z,7.83
2018-01-25T04:16:58.742Z,7.83
2018-01-25T04:17:58.709Z,7.83
2018-01-25T04:18:58.691Z,7.79
2018-01-25T04:19:58.412Z,7.87
2018-01-25T04:20:58.649Z,7.85
2018-01-25T04:21:58.616Z,7.82
2018-01-25T04:22:58.584Z,7.83
2018-01-25T04:23:58.558Z,7.82
2018-01-25T04:24:58.527Z,7.82
2018-01-25T04:25:58.506Z,7.83
2018-01-25T04:26:58.472Z,7.85
2018-01-25T04:27:58.450Z,7.8
2018-01-25T04:28:58.424Z,7.77
2018-01-25T04:29:58.400Z,7.8
2018-01-25T04:30:57.878Z,7.7
2018-01-25T04:31:58.348Z,7.76
2018-01-25T04:32:58.371Z,7.76
2018-01-25T04:33:58.296Z,7.75
2018-01-25T04:34:58.268Z,7.75
2018-01-25T04:35:58.244Z,7.76
2018-01-25T04:36:58.218Z,7.7
2018-01-25T04:37:57.942Z,7.73
2018-01-25T04:38:58.166Z,7.76
2018-01-25T04:39:58.136Z,7.7
2018-01-25T04:40:58.108Z,7.7
2018-01-25T04:41:58.087Z,7.72
2018-01-25T04:42:58.056Z,7.73
2018-01-25T04:43:58.128Z,7.7
2018-01-25T04:44:58.010Z,7.69
2018-01-25T04:45:57.980Z,7.63
2018-01-25T04:46:57.951Z,7.61
2018-01-25T04:47:57.925Z,7.67
2018-01-25T04:48:57.899Z,7.69
2018-01-25T04:49:57.624Z,7.61
2018-01-25T04:50:57.600Z,7.61
2018-01-25T04:51:57.824Z,7.73
2018-01-25T04:52:57.300Z,7.67
2018-01-25T04:53:57.775Z,7.61
2018-01-25T04:54:57.739Z,7.7
2018-01-25T04:55:57.712Z,7.75
2018-01-25T04:56:57.441Z,7.73
2018-01-25T04:57:57.665Z,7.7
2018-01-25T04:58:57.636Z,7.75
2018-01-25T04:59:57.602Z,7.77
2018-01-25T05:00:57.579Z,7.73
2018-01-25T05:01:57.556Z,7.7
2018-01-25T05:02:57.531Z,7.73
2018-01-25T05:03:57.504Z,7.75
2018-01-25T05:04:57.473Z,7.73
2018-01-25T05:05:57.206Z,7.66
2018-01-25T05:06:57.423Z,7.72
2018-01-25T05:07:57.396Z,7.6
2018-01-25T05:08:57.367Z,7.7
2018-01-25T05:09:57.343Z,7.61
2018-01-25T05:10:57.318Z,7.61
2018-01-25T05:11:57.288Z,7.63
2018-01-25T05:12:57.016Z,7.67
2018-01-25T05:13:57.232Z,7.67
2018-01-25T05:14:57.210Z,7.69
2018-01-25T05:15:57.183Z,7.63
2018-01-25T05:16:57.164Z,7.77
2018-01-25T05:17:57.131Z,7.76
2018-01-25T05:18:56.859Z,7.7
2018-01-25T05:19:56.830Z,7.73
2018-01-25T05:20:56.806Z,7.73
2018-01-25T05:21:57.023Z,7.73
2018-01-25T05:22:56.997Z,7.76
2018-01-25T05:23:56.966Z,7.75
2018-01-25T05:24:56.698Z,7.73
2018-01-25T05:25:56.672Z,7.7
2018-01-25T05:26:56.643Z,7.61
2018-01-25T05:27:56.620Z,7.7
2018-01-25T05:28:56.594Z,7.73
2018-01-25T05:29:56.812Z,7.61
2018-01-25T05:30:56.296Z,7.73
2018-01-25T05:31:56.763Z,7.66
2018-01-25T05:32:56.736Z,7.69
2018-01-25T05:33:56.708Z,7.73
2018-01-25T05:34:56.679Z,7.76
2018-01-25T05:35:56.655Z,7.63
2018-01-25T05:36:56.624Z,7.73
2018-01-25T05:37:56.357Z,7.76
2018-01-25T05:38:56.573Z,7.76
2018-01-25T05:39:56.305Z,7.73
2018-01-25T05:40:56.521Z,7.76
2018-01-25T05:41:56.495Z,7.76
2018-01-25T05:42:56.223Z,7.76
2018-01-25T05:43:56.438Z,7.75
2018-01-25T05:44:56.416Z,7.73
2018-01-25T05:45:56.144Z,7.77
2018-01-25T05:46:56.364Z,7.79
2018-01-25T05:47:56.090Z,7.7
2018-01-25T05:48:56.312Z,7.75
2018-01-25T05:49:56.037Z,7.73
2018-01-25T05:50:56.254Z,7.75
2018-01-25T05:51:56.232Z,7.75
2018-01-25T05:52:56.199Z,7.75
2018-01-25T05:53:56.180Z,7.72
2018-01-25T05:54:56.147Z,7.69
2018-01-25T05:55:55.884Z,7.73
2018-01-25T05:56:55.853Z,7.73
2018-01-25T05:57:56.075Z,7.77
2018-01-25T05:58:56.044Z,7.75
2018-01-25T05:59:56.024Z,7.76
2018-01-25T06:00:55.991Z,7.75
2018-01-25T06:01:55.723Z,7.8
2018-01-25T06:02:55.448Z,7.75
2018-01-25T06:03:55.664Z,7.75
2018-01-25T06:04:55.887Z,7.75
2018-01-25T06:05:55.861Z,7.75
2018-01-25T06:06:55.840Z,7.75
2018-01-25T06:07:55.315Z,7.8
2018-01-25T06:08:55.820Z,7.67
2018-01-25T06:09:55.760Z,7.76
2018-01-25T06:10:55.726Z,7.76
2018-01-25T06:11:55.706Z,7.73
2018-01-25T06:12:55.675Z,7.75
2018-01-25T06:13:55.650Z,7.76
2018-01-25T06:14:55.625Z,7.73
2018-01-25T06:15:55.603Z,7.73
2018-01-25T06:16:55.326Z,7.75
2018-01-25T06:17:55.543Z,7.7
2018-01-25T06:18:55.515Z,7.7
2018-01-25T06:19:55.250Z,7.75
2018-01-25T06:20:55.226Z,7.72
2018-01-25T06:21:55.439Z,7.73
2018-01-25T06:22:55.414Z,7.77
2018-01-25T06:23:55.145Z,7.77
2018-01-25T06:24:55.359Z,7.7
2018-01-25T06:25:55.337Z,7.73
2018-01-25T06:26:55.308Z,7.72
2018-01-25T06:27:55.280Z,7.63
2018-01-25T06:28:55.257Z,7.76
2018-01-25T06:29:54.985Z,7.73
2018-01-25T06:30:55.198Z,7.61
2018-01-25T06:31:54.930Z,7.66
2018-01-25T06:32:55.150Z,7.77
2018-01-25T06:33:55.119Z,7.63
2018-01-25T06:34:55.099Z,7.69
2018-01-25T06:35:55.068Z,7.66
2018-01-25T06:36:55.044Z,7.61
2018-01-25T06:37:55.019Z,7.67
2018-01-25T06:38:55.001Z,7.63
2018-01-25T06:39:54.966Z,7.58
2018-01-25T06:40:54.693Z,7.73
2018-01-25T06:41:54.663Z,7.6
2018-01-25T06:42:54.691Z,7.66
2018-01-25T06:43:54.856Z,7.69
2018-01-25T06:44:54.840Z,7.79
2018-01-25T06:45:54.577Z,7.72
2018-01-25T06:46:54.536Z,7.75
2018-01-25T06:47:54.509Z,7.75
2018-01-25T06:48:54.730Z,7.82
2018-01-25T06:49:54.704Z,7.8
2018-01-25T06:50:54.781Z,7.73
2018-01-25T06:51:54.655Z,7.7
2018-01-25T06:52:55.199Z,7.73
2018-01-25T06:53:54.951Z,7.75
2018-01-25T06:54:54.570Z,7.7
2018-01-25T06:55:54.394Z,7.77
2018-01-25T06:56:54.523Z,7.76
2018-01-25T06:57:54.489Z,7.76
2018-01-25T06:58:54.474Z,7.63
2018-01-25T06:59:54.456Z,7.7
2018-01-25T07:00:54.555Z,7.77
2018-01-25T07:01:54.383Z,7.7
2018-01-25T07:02:54.354Z,7.75
2018-01-25T07:03:54.843Z,7.73
2018-01-25T07:04:54.950Z,7.7
2018-01-25T07:05:54.336Z,7.73
2018-01-25T07:06:54.004Z,7.72
2018-01-25T07:07:53.981Z,7.76
2018-01-25T07:08:54.197Z,7.76
2018-01-25T07:09:54.174Z,7.73
2018-01-25T07:10:55.561Z,7.66
2018-01-25T07:11:54.327Z,7.73
2018-01-25T07:12:54.098Z,7.73
2018-01-25T07:13:53.823Z,7.73
2018-01-25T07:14:53.550Z,7.61
2018-01-25T07:15:54.015Z,7.7
2018-01-25T07:16:53.988Z,7.7
2018-01-25T07:17:53.720Z,7.73
2018-01-25T07:18:53.935Z,7.79
2018-01-25T07:19:53.910Z,7.83
2018-01-25T07:20:53.882Z,7.79
2018-01-25T07:21:53.857Z,7.88
2018-01-25T07:22:53.828Z,7.72
2018-01-25T07:23:53.856Z,7.88
2018-01-25T07:24:53.781Z,7.76
2018-01-25T07:25:53.549Z,7.79
2018-01-25T07:26:53.726Z,7.85
2018-01-25T07:27:53.795Z,7.79
2018-01-25T07:28:53.676Z,7.76
2018-01-25T07:29:53.649Z,7.85
2018-01-25T07:30:53.434Z,7.82
2018-01-25T07:31:53.349Z,7.93
2018-01-25T07:32:53.715Z,7.91
2018-01-25T07:33:54.152Z,7.97
2018-01-25T07:34:53.928Z,7.97
2018-01-25T07:35:53.490Z,7.94
2018-01-25T07:36:53.463Z,7.97
2018-01-25T07:37:53.447Z,7.97
2018-01-25T07:38:53.409Z,8
2018-01-25T07:39:53.217Z,7.94
2018-01-25T07:40:53.356Z,7.93
2018-01-25T07:41:53.390Z,7.95
2018-01-25T07:42:53.330Z,8.06
2018-01-25T07:43:53.374Z,7.97
2018-01-25T07:44:53.006Z,7.95
2018-01-25T07:45:53.407Z,8.01
2018-01-25T07:46:53.202Z,7.95
2018-01-25T07:47:53.178Z,7.95
2018-01-25T07:48:53.221Z,7.98
2018-01-25T07:49:52.877Z,7.94
2018-01-25T07:50:53.098Z,7.93
2018-01-25T07:51:52.585Z,8
2018-01-25T07:52:52.796Z,7.97
2018-01-25T07:53:53.014Z,7.94
2018-01-25T07:54:52.861Z,7.98
2018-01-25T07:55:52.756Z,8.06
2018-01-25T07:56:52.939Z,8
2018-01-25T07:57:52.910Z,7.95
2018-01-25T07:58:52.892Z,7.95
2018-01-25T07:59:52.866Z,7.95
2018-01-25T08:00:52.839Z,7.98
2018-01-25T08:01:52.812Z,7.97
2018-01-25T08:02:52.791Z,8.01
2018-01-25T08:03:52.762Z,8.06
2018-01-25T08:04:52.736Z,7.98
2018-01-25T08:05:52.707Z,8.01
2018-01-25T08:06:52.686Z,8.05
2018-01-25T08:07:52.653Z,8
2018-01-25T08:08:52.628Z,8.06
2018-01-25T08:09:52.605Z,8.09
2018-01-25T08:10:52.577Z,8.01
2018-01-25T08:11:52.602Z,8.12
2018-01-25T08:12:52.035Z,8.1
2018-01-25T08:13:52.499Z,8.03
2018-01-25T08:14:52.231Z,8.12
2018-01-25T08:15:52.448Z,8.09
2018-01-25T08:16:52.421Z,8.19
2018-01-25T08:17:52.249Z,8.2
2018-01-25T08:18:52.373Z,8.23
2018-01-25T08:19:52.257Z,8.18
2018-01-25T08:20:52.398Z,8.2
2018-01-25T08:21:52.292Z,8.27
2018-01-25T08:22:52.269Z,8.28
2018-01-25T08:23:51.998Z,8.3
2018-01-25T08:24:51.730Z,8.19
2018-01-25T08:25:52.193Z,8.26
2018-01-25T08:26:52.171Z,8.24
2018-01-25T08:27:51.998Z,8.34
2018-01-25T08:28:52.121Z,8.3
2018-01-25T08:29:52.091Z,8.26
2018-01-25T08:30:51.819Z,8.36
2018-01-25T08:31:52.045Z,8.34
2018-01-25T08:32:52.013Z,8.34
2018-01-25T08:33:52.005Z,8.31
2018-01-25T08:34:51.970Z,8.42
2018-01-25T08:35:51.935Z,8.31
2018-01-25T08:36:51.960Z,8.36
2018-01-25T08:37:51.645Z,8.44
2018-01-25T08:38:51.619Z,8.45
2018-01-25T08:39:51.844Z,8.48
2018-01-25T08:40:51.566Z,8.46
2018-01-25T08:41:51.824Z,8.48
2018-01-25T08:42:51.275Z,8.41
2018-01-25T08:43:51.744Z,8.49
2018-01-25T08:44:51.468Z,8.51
2018-01-25T08:45:51.445Z,8.42
2018-01-25T08:46:51.674Z,8.45
2018-01-25T08:47:51.637Z,8.49
2018-01-25T08:48:51.617Z,8.55
2018-01-25T08:49:51.591Z,8.58
2018-01-25T08:50:51.313Z,8.52
2018-01-25T08:51:51.538Z,8.56
2018-01-25T08:52:51.516Z,8.53
2018-01-25T08:53:51.497Z,8.55
2018-01-25T08:54:51.459Z,8.66
2018-01-25T08:55:51.430Z,8.56
2018-01-25T08:56:50.917Z,8.63
2018-01-25T08:57:51.148Z,8.61
2018-01-25T08:58:51.113Z,8.61
2018-01-25T08:59:51.092Z,8.6
2018-01-25T09:00:51.067Z,8.67
2018-01-25T09:01:51.045Z,8.73
2018-01-25T09:02:51.142Z,8.56
2018-01-25T09:03:51.183Z,8.6
2018-01-25T09:04:51.474Z,8.64
2018-01-25T09:05:51.191Z,8.56
2018-01-25T09:06:51.156Z,8.73
2018-01-25T09:07:51.136Z,8.73
2018-01-25T09:08:51.421Z,8.74
2018-01-25T09:09:51.085Z,8.7
2018-01-25T09:10:51.065Z,8.76
2018-01-25T09:11:50.541Z,8.73
2018-01-25T09:12:50.765Z,8.78
2018-01-25T09:13:50.990Z,8.74
2018-01-25T09:14:50.965Z,8.78
2018-01-25T09:15:50.688Z,8.81
2018-01-25T09:16:50.910Z,8.76
2018-01-25T09:17:51.104Z,8.81
2018-01-25T09:18:51.890Z,8.84
2018-01-25T09:19:50.835Z,8.81
2018-01-25T09:20:50.574Z,8.84
2018-01-25T09:21:50.785Z,8.87
2018-01-25T09:22:50.860Z,8.87
2018-01-25T09:23:50.749Z,8.91
2018-01-25T09:24:50.650Z,8.87
2018-01-25T09:25:50.701Z,8.81
2018-01-25T09:26:50.666Z,8.92
2018-01-25T09:27:50.639Z,8.92
2018-01-25T09:28:50.521Z,8.88
2018-01-25T09:29:50.589Z,8.91
2018-01-25T09:30:50.608Z,9.02
2018-01-25T09:31:50.544Z,8.95
2018-01-25T09:32:50.514Z,8.94
2018-01-25T09:33:50.245Z,8.97
2018-01-25T09:34:50.221Z,9.02
2018-01-25T09:35:50.193Z,9.03
2018-01-25T09:36:50.169Z,9.03
2018-01-25T09:37:49.901Z,9.02
2018-01-25T09:38:50.371Z,9.1
2018-01-25T09:39:50.346Z,9.08
2018-01-25T09:40:50.072Z,9.03
2018-01-25T09:41:50.051Z,9.08
2018-01-25T09:42:50.269Z,9.14
2018-01-25T09:43:50.001Z,9.08
2018-01-25T09:44:49.976Z,9.08
2018-01-25T09:45:49.949Z,9.08
2018-01-25T09:46:50.175Z,9.11
2018-01-25T09:47:50.149Z,9.13
2018-01-25T09:48:49.631Z,9.16
2018-01-25T09:49:49.858Z,9.16
2018-01-25T09:50:50.076Z,9.16
2018-01-25T09:51:49.809Z,9.13
2018-01-25T09:52:50.075Z,9.14
2018-01-25T09:53:50.002Z,9.1
2018-01-25T09:54:49.733Z,9.21
2018-01-25T09:55:49.706Z,9.21
2018-01-25T09:56:50.012Z,9.26
2018-01-25T09:57:49.663Z,9.23
2018-01-25T09:58:49.882Z,9.18
2018-01-25T09:59:49.889Z,9.21
2018-01-25T10:00:49.834Z,9.28
2018-01-25T10:01:49.813Z,9.37
2018-01-25T10:02:49.615Z,9.37
2018-01-25T10:03:49.517Z,9.37
2018-01-25T10:04:49.734Z,9.37
2018-01-25T10:05:49.716Z,9.41
2018-01-25T10:06:49.695Z,9.4
2018-01-25T10:07:49.668Z,9.48
2018-01-25T10:08:49.643Z,9.5
2018-01-25T10:09:49.370Z,9.47
2018-01-25T10:10:49.588Z,9.48
2018-01-25T10:11:49.566Z,9.51
2018-01-25T10:12:49.543Z,9.51
2018-01-25T10:13:49.530Z,9.48
2018-01-25T10:14:49.503Z,9.5
2018-01-25T10:15:49.474Z,9.47
2018-01-25T10:16:49.451Z,9.46
2018-01-25T10:17:49.913Z,9.61
2018-01-25T10:18:49.430Z,9.47
2018-01-25T10:19:49.132Z,9.48
2018-01-25T10:20:49.354Z,9.46
2018-01-25T10:21:49.085Z,9.46
2018-01-25T10:22:49.060Z,9.58
2018-01-25T10:23:49.284Z,9.5
2018-01-25T10:24:49.022Z,9.61
2018-01-25T10:25:49.238Z,9.59
2018-01-25T10:26:49.084Z,9.62
2018-01-25T10:27:49.188Z,9.62
2018-01-25T10:28:49.164Z,9.56
2018-01-25T10:29:48.901Z,9.66
2018-01-25T10:30:49.121Z,9.64
2018-01-25T10:31:49.095Z,9.66
2018-01-25T10:32:49.145Z,9.68
2018-01-25T10:33:49.048Z,9.72
2018-01-25T10:34:48.781Z,9.68
2018-01-25T10:35:49.002Z,9.74
2018-01-25T10:36:48.982Z,9.74
2018-01-25T10:37:48.956Z,9.73
2018-01-25T10:38:48.930Z,9.82
2018-01-25T10:39:48.937Z,9.79
2018-01-25T10:40:48.891Z,9.86
2018-01-25T10:41:48.862Z,9.86
2018-01-25T10:42:48.842Z,9.91
2018-01-25T10:43:48.568Z,9.94
2018-01-25T10:44:48.794Z,9.89
2018-01-25T10:45:48.523Z,9.98
2018-01-25T10:46:48.749Z,9.94
2018-01-25T10:47:48.482Z,9.95
2018-01-25T10:48:48.699Z,10.02
2018-01-25T10:49:48.445Z,10.05
2018-01-25T10:50:48.407Z,10.04
2018-01-25T10:51:48.637Z,9.98
2018-01-25T10:52:48.697Z,9.91
2018-01-25T10:53:48.346Z,9.92
2018-01-25T10:54:49.288Z,10.04
2018-01-25T10:55:48.540Z,10.02
2018-01-25T10:56:48.522Z,10.09
2018-01-25T10:57:48.248Z,10.05
2018-01-25T10:58:47.985Z,10.12
2018-01-25T10:59:48.508Z,10.1
2018-01-25T11:00:48.182Z,10.19
2018-01-25T11:01:48.211Z,10.1
2018-01-25T11:02:48.379Z,10.17
2018-01-25T11:03:48.115Z,10.23
2018-01-25T11:04:48.338Z,10.13
2018-01-25T11:05:48.374Z,10.28
2018-01-25T11:06:48.047Z,10.25
2018-01-25T11:07:48.268Z,10.23
2018-01-25T11:08:48.249Z,10.25
2018-01-25T11:09:48.229Z,10.34
2018-01-25T11:10:48.203Z,10.37
2018-01-25T11:11:48.177Z,10.42
2018-01-25T11:12:48.167Z,10.33
2018-01-25T11:13:47.887Z,10.41
2018-01-25T11:14:48.107Z,10.46
2018-01-25T11:15:48.086Z,10.35
2018-01-25T11:16:48.065Z,10.38
2018-01-25T11:17:47.798Z,10.34
2018-01-25T11:18:48.035Z,10.4
2018-01-25T11:19:48.323Z,10.49
2018-01-25T11:20:47.975Z,10.49
2018-01-25T11:21:47.710Z,10.54
2018-01-25T11:22:47.933Z,10.54
2018-01-25T11:23:47.911Z,10.56
2018-01-25T11:24:47.649Z,10.6
2018-01-25T11:25:47.620Z,10.6
2018-01-25T11:26:47.858Z,10.68
2018-01-25T11:27:47.819Z,10.56
2018-01-25T11:28:47.807Z,10.61
2018-01-25T11:29:47.788Z,10.6
2018-01-25T11:30:47.513Z,10.69
2018-01-25T11:31:47.733Z,10.69
2018-01-25T11:32:47.717Z,10.6
2018-01-25T11:33:47.692Z,10.63
2018-01-25T11:34:47.425Z,10.72
2018-01-25T11:35:47.401Z,10.69
2018-01-25T11:36:47.631Z,10.67
2018-01-25T11:37:47.610Z,10.69
2018-01-25T11:38:47.582Z,10.68
2018-01-25T11:39:47.556Z,10.72
2018-01-25T11:40:47.293Z,10.76
2018-01-25T11:41:47.526Z,10.78
2018-01-25T11:42:47.251Z,10.74
2018-01-25T11:43:47.473Z,10.79
2018-01-25T11:44:47.450Z,10.78
2018-01-25T11:45:47.428Z,10.75
2018-01-25T11:46:47.412Z,10.78
2018-01-25T11:47:47.139Z,10.71
2018-01-25T11:48:47.364Z,10.72
2018-01-25T11:49:47.348Z,10.71
2018-01-25T11:50:47.324Z,10.72
2018-01-25T11:51:47.049Z,10.68
2018-01-25T11:52:47.496Z,10.69
2018-01-25T11:53:47.009Z,10.72
2018-01-25T11:54:46.989Z,10.79
2018-01-25T11:55:46.965Z,10.82
2018-01-25T11:56:47.189Z,10.81
2018-01-25T11:57:47.183Z,10.89
2018-01-25T11:58:47.117Z,10.86
2018-01-25T11:59:46.881Z,10.78
2018-01-25T12:00:47.102Z,10.82
2018-01-25T12:01:46.832Z,10.75
2018-01-25T12:02:47.061Z,10.74
2018-01-25T12:03:46.629Z,10.72
2018-01-25T12:04:47.049Z,10.68
2018-01-25T12:05:46.751Z,10.82
2018-01-25T12:06:46.976Z,10.79
2018-01-25T12:07:46.460Z,10.76
2018-01-25T12:08:46.685Z,10.72
2018-01-25T12:09:46.659Z,10.78
2018-01-25T12:10:46.720Z,10.79
2018-01-25T12:11:46.857Z,10.84
2018-01-25T12:12:46.348Z,10.78
2018-01-25T12:13:46.819Z,10.75
2018-01-25T12:14:46.546Z,10.84
2018-01-25T12:15:46.532Z,10.79
2018-01-25T12:16:46.747Z,10.78
2018-01-25T12:17:46.728Z,10.84
2018-01-25T12:18:46.710Z,10.93
2018-01-25T12:19:46.443Z,10.96
2018-01-25T12:20:46.421Z,10.99
2018-01-25T12:21:46.646Z,10.94
2018-01-25T12:22:46.371Z,10.93
2018-01-25T12:23:46.597Z,10.99
2018-01-25T12:24:46.577Z,10.94
2018-01-25T12:25:46.624Z,10.99
2018-01-25T12:26:46.289Z,10.89
2018-01-25T12:27:46.512Z,10.86
2018-01-25T12:28:46.531Z,10.87
2018-01-25T12:29:46.466Z,10.79
2018-01-25T12:30:46.465Z,10.79
2018-01-25T12:31:46.175Z,10.78
2018-01-25T12:32:46.406Z,10.75
2018-01-25T12:33:46.379Z,10.72
2018-01-25T12:34:46.114Z,10.75
2018-01-25T12:35:46.090Z,10.71
2018-01-25T12:36:46.313Z,10.74
2018-01-25T12:37:46.308Z,10.72
2018-01-25T12:38:46.275Z,10.63
2018-01-25T12:39:46.244Z,10.72
2018-01-25T12:40:46.222Z,10.69
2018-01-25T12:41:46.202Z,10.68
2018-01-25T12:42:46.178Z,10.59
2018-01-25T12:43:46.161Z,10.71
2018-01-25T12:44:46.136Z,10.59
2018-01-25T12:45:46.126Z,10.74
2018-01-25T12:46:46.093Z,10.76
2018-01-25T12:47:46.065Z,10.76
2018-01-25T12:48:45.799Z,10.75
2018-01-25T12:49:46.024Z,10.79
2018-01-25T12:50:45.757Z,10.82
2018-01-25T12:51:45.739Z,10.72
2018-01-25T12:52:45.712Z,10.71
2018-01-25T12:53:45.934Z,10.79
2018-01-25T12:54:45.671Z,10.74
2018-01-25T12:55:45.642Z,10.72
2018-01-25T12:56:45.872Z,10.74
2018-01-25T12:57:45.845Z,10.71
2018-01-25T12:58:45.826Z,10.69
2018-01-25T12:59:45.802Z,10.75
2018-01-25T13:00:45.780Z,10.71
2018-01-25T13:01:45.752Z,10.75
2018-01-25T13:02:45.735Z,10.68
2018-01-25T13:03:45.216Z,10.74
2018-01-25T13:04:45.689Z,10.78
2018-01-25T13:05:45.668Z,10.75
2018-01-25T13:06:45.647Z,10.75
2018-01-25T13:07:45.376Z,10.78
2018-01-25T13:08:45.601Z,10.79
2018-01-25T13:09:45.575Z,10.92
2018-01-25T13:10:45.558Z,10.99
2018-01-25T13:11:45.530Z,10.9
2018-01-25T13:12:45.514Z,10.97
2018-01-25T13:13:45.279Z,10.96